sensor_id;sensor_type;location;lat;lon;timestamp;temperature;humidity
70107;DHT22;57473;37.508;15.080;2023-03-03T00:01:53;10.50;69.00
70107;DHT22;57473;37.508;15.080;2023-03-03T00:04:21;10.50;68.60
70107;DHT22;57473;37.508;15.080;2023-03-03T00:06:48;10.60;68.00
70107;DHT22;57473;37.508;15.080;2023-03-03T00:09:16;10.50;68.30
70107;DHT22;57473;37.508;15.080;2023-03-03T00:11:44;10.50;68.40
70107;DHT22;57473;37.508;15.080;2023-03-03T00:14:39;10.50;68.80
70107;DHT22;57473;37.508;15.080;2023-03-03T00:17:23;10.40;69.30
70107;DHT22;57473;37.508;15.080;2023-03-03T00:19:51;10.40;70.30
70107;DHT22;57473;37.508;15.080;2023-03-03T00:22:30;10.30;71.60
70107;DHT22;57473;37.508;15.080;2023-03-03T00:25:30;10.20;72.30
70107;DHT22;57473;37.508;15.080;2023-03-03T00:30:45;10.10;74.20
70107;DHT22;57473;37.508;15.080;2023-03-03T00:33:33;10.10;74.90
70107;DHT22;57473;37.508;15.080;2023-03-03T00:38:42;10.10;75.80
70107;DHT22;57473;37.508;15.080;2023-03-03T00:41:29;10.10;74.90
70107;DHT22;57473;37.508;15.080;2023-03-03T00:43:57;10.10;74.50
70107;DHT22;57473;37.508;15.080;2023-03-03T00:46:24;10.10;74.50
70107;DHT22;57473;37.508;15.080;2023-03-03T00:48:52;10.00;74.70
70107;DHT22;57473;37.508;15.080;2023-03-03T00:53:50;10.00;74.60
70107;DHT22;57473;37.508;15.080;2023-03-03T00:56:18;10.00;74.30
70107;DHT22;57473;37.508;15.080;2023-03-03T00:58:45;10.00;74.40
70107;DHT22;57473;37.508;15.080;2023-03-03T01:01:17;10.00;74.60
70107;DHT22;57473;37.508;15.080;2023-03-03T01:03:49;10.00;74.80
70107;DHT22;57473;37.508;15.080;2023-03-03T01:06:16;10.00;74.70
70107;DHT22;57473;37.508;15.080;2023-03-03T01:08:43;10.00;74.80
70107;DHT22;57473;37.508;15.080;2023-03-03T01:11:23;10.00;74.90
70107;DHT22;57473;37.508;15.080;2023-03-03T01:13:53;10.00;75.00
70107;DHT22;57473;37.508;15.080;2023-03-03T01:16:20;10.00;74.80
70107;DHT22;57473;37.508;15.080;2023-03-03T01:18:49;10.00;74.70
70107;DHT22;57473;37.508;15.080;2023-03-03T01:21:16;10.00;74.60
70107;DHT22;57473;37.508;15.080;2023-03-03T01:23:44;10.00;74.20
70107;DHT22;57473;37.508;15.080;2023-03-03T01:26:11;10.00;73.60
70107;DHT22;57473;37.508;15.080;2023-03-03T01:28:39;10.00;73.10
70107;DHT22;57473;37.508;15.080;2023-03-03T01:31:06;10.00;73.00
70107;DHT22;57473;37.508;15.080;2023-03-03T01:33:35;10.00;72.50
70107;DHT22;57473;37.508;15.080;2023-03-03T01:36:03;10.00;71.70
70107;DHT22;57473;37.508;15.080;2023-03-03T01:38:30;10.10;71.20
70107;DHT22;57473;37.508;15.080;2023-03-03T01:40:59;10.10;70.50
70107;DHT22;57473;37.508;15.080;2023-03-03T01:43:28;10.10;70.00
70107;DHT22;57473;37.508;15.080;2023-03-03T01:48:31;10.10;69.10
70107;DHT22;57473;37.508;15.080;2023-03-03T01:51:25;10.00;68.80
70107;DHT22;57473;37.508;15.080;2023-03-03T01:54:09;10.00;68.70
70107;DHT22;57473;37.508;15.080;2023-03-03T01:56:37;10.00;68.60
70107;DHT22;57473;37.508;15.080;2023-03-03T01:59:30;10.00;68.30
70107;DHT22;57473;37.508;15.080;2023-03-03T02:02:00;10.00;68.10
70107;DHT22;57473;37.508;15.080;2023-03-03T02:04:27;10.00;68.30
70107;DHT22;57473;37.508;15.080;2023-03-03T02:07:01;10.00;68.30
70107;DHT22;57473;37.508;15.080;2023-03-03T02:09:44;10.00;68.30
70107;DHT22;57473;37.508;15.080;2023-03-03T02:12:16;10.00;68.40
70107;DHT22;57473;37.508;15.080;2023-03-03T02:14:44;10.00;68.40
70107;DHT22;57473;37.508;15.080;2023-03-03T02:17:11;10.00;68.10
70107;DHT22;57473;37.508;15.080;2023-03-03T02:22:15;10.10;68.30
70107;DHT22;57473;37.508;15.080;2023-03-03T02:24:53;10.10;68.20
70107;DHT22;57473;37.508;15.080;2023-03-03T02:27:21;10.10;68.20
70107;DHT22;57473;37.508;15.080;2023-03-03T02:29:50;10.10;68.00
70107;DHT22;57473;37.508;15.080;2023-03-03T02:32:18;10.10;68.30
70107;DHT22;57473;37.508;15.080;2023-03-03T02:34:47;10.00;68.40
70107;DHT22;57473;37.508;15.080;2023-03-03T02:37:16;10.10;68.70
70107;DHT22;57473;37.508;15.080;2023-03-03T02:39:44;10.00;68.50
70107;DHT22;57473;37.508;15.080;2023-03-03T02:42:24;10.10;68.70
70107;DHT22;57473;37.508;15.080;2023-03-03T02:44:55;10.10;68.90
70107;DHT22;57473;37.508;15.080;2023-03-03T02:47:22;10.10;69.00
70107;DHT22;57473;37.508;15.080;2023-03-03T02:49:49;10.10;69.30
70107;DHT22;57473;37.508;15.080;2023-03-03T02:52:17;10.10;68.90
70107;DHT22;57473;37.508;15.080;2023-03-03T02:54:46;10.00;69.20
70107;DHT22;57473;37.508;15.080;2023-03-03T02:57:13;10.00;69.10
70107;DHT22;57473;37.508;15.080;2023-03-03T02:59:41;10.10;69.00
70107;DHT22;57473;37.508;15.080;2023-03-03T03:02:15;10.10;68.80
70107;DHT22;57473;37.508;15.080;2023-03-03T03:04:42;10.00;69.00
70107;DHT22;57473;37.508;15.080;2023-03-03T03:07:14;10.00;69.30
70107;DHT22;57473;37.508;15.080;2023-03-03T03:09:42;10.00;69.10
70107;DHT22;57473;37.508;15.080;2023-03-03T03:12:09;10.00;68.80
70107;DHT22;57473;37.508;15.080;2023-03-03T03:14:37;10.00;69.60
70107;DHT22;57473;37.508;15.080;2023-03-03T03:17:06;10.00;69.90
70107;DHT22;57473;37.508;15.080;2023-03-03T03:19:33;10.00;70.20
70107;DHT22;57473;37.508;15.080;2023-03-03T03:22:01;10.00;70.20
70107;DHT22;57473;37.508;15.080;2023-03-03T03:24:31;10.00;71.20
70107;DHT22;57473;37.508;15.080;2023-03-03T03:27:03;10.00;71.10
70107;DHT22;57473;37.508;15.080;2023-03-03T03:29:31;10.00;71.80
70107;DHT22;57473;37.508;15.080;2023-03-03T03:31:58;9.90;72.00
70107;DHT22;57473;37.508;15.080;2023-03-03T03:34:26;9.90;72.30
70107;DHT22;57473;37.508;15.080;2023-03-03T03:36:54;9.90;73.60
70107;DHT22;57473;37.508;15.080;2023-03-03T03:39:23;9.90;73.60
70107;DHT22;57473;37.508;15.080;2023-03-03T03:41:52;9.90;73.10
70107;DHT22;57473;37.508;15.080;2023-03-03T03:44:20;9.90;72.60
70107;DHT22;57473;37.508;15.080;2023-03-03T03:46:47;9.90;74.10
70107;DHT22;57473;37.508;15.080;2023-03-03T03:49:15;9.80;74.30
70107;DHT22;57473;37.508;15.080;2023-03-03T03:51:42;9.80;74.20
70107;DHT22;57473;37.508;15.080;2023-03-03T03:54:13;9.80;74.40
70107;DHT22;57473;37.508;15.080;2023-03-03T03:56:41;9.80;74.80
70107;DHT22;57473;37.508;15.080;2023-03-03T03:59:09;9.80;74.50
70107;DHT22;57473;37.508;15.080;2023-03-03T04:01:37;9.80;74.30
70107;DHT22;57473;37.508;15.080;2023-03-03T04:04:04;9.80;74.00
70107;DHT22;57473;37.508;15.080;2023-03-03T04:06:33;9.80;73.70
70107;DHT22;57473;37.508;15.080;2023-03-03T04:09:01;9.80;73.00
70107;DHT22;57473;37.508;15.080;2023-03-03T04:11:29;9.90;72.20
70107;DHT22;57473;37.508;15.080;2023-03-03T04:13:57;9.90;71.90
70107;DHT22;57473;37.508;15.080;2023-03-03T04:16:26;9.90;72.00
70107;DHT22;57473;37.508;15.080;2023-03-03T04:18:53;9.90;72.10
70107;DHT22;57473;37.508;15.080;2023-03-03T04:21:21;9.90;72.40
70107;DHT22;57473;37.508;15.080;2023-03-03T04:23:50;9.90;72.20
70107;DHT22;57473;37.508;15.080;2023-03-03T04:26:19;9.90;71.90
70107;DHT22;57473;37.508;15.080;2023-03-03T04:28:48;9.90;71.80
70107;DHT22;57473;37.508;15.080;2023-03-03T04:31:16;9.90;72.00
70107;DHT22;57473;37.508;15.080;2023-03-03T04:33:43;9.90;72.30
70107;DHT22;57473;37.508;15.080;2023-03-03T04:36:11;9.90;72.80
70107;DHT22;57473;37.508;15.080;2023-03-03T04:38:38;9.90;73.30
70107;DHT22;57473;37.508;15.080;2023-03-03T04:41:06;10.00;73.50
70107;DHT22;57473;37.508;15.080;2023-03-03T04:43:37;10.00;73.70
70107;DHT22;57473;37.508;15.080;2023-03-03T04:46:05;10.00;73.90
70107;DHT22;57473;37.508;15.080;2023-03-03T04:48:36;10.10;74.20
70107;DHT22;57473;37.508;15.080;2023-03-03T04:51:04;10.20;73.80
70107;DHT22;57473;37.508;15.080;2023-03-03T04:53:34;10.30;73.70
70107;DHT22;57473;37.508;15.080;2023-03-03T04:56:03;10.30;74.00
70107;DHT22;57473;37.508;15.080;2023-03-03T04:58:30;10.30;74.20
70107;DHT22;57473;37.508;15.080;2023-03-03T05:00:58;10.30;74.40
70107;DHT22;57473;37.508;15.080;2023-03-03T05:03:28;10.30;74.20
70107;DHT22;57473;37.508;15.080;2023-03-03T05:05:55;10.30;73.80
70107;DHT22;57473;37.508;15.080;2023-03-03T05:08:23;10.40;74.00
70107;DHT22;57473;37.508;15.080;2023-03-03T05:10:52;10.40;73.90
70107;DHT22;57473;37.508;15.080;2023-03-03T05:13:19;10.40;74.00
70107;DHT22;57473;37.508;15.080;2023-03-03T05:15:52;10.50;74.20
70107;DHT22;57473;37.508;15.080;2023-03-03T05:18:22;10.50;74.30
70107;DHT22;57473;37.508;15.080;2023-03-03T05:20:50;10.50;74.40
70107;DHT22;57473;37.508;15.080;2023-03-03T05:23:19;10.60;74.20
70107;DHT22;57473;37.508;15.080;2023-03-03T05:25:47;10.60;74.40
70107;DHT22;57473;37.508;15.080;2023-03-03T05:28:16;10.60;74.40
70107;DHT22;57473;37.508;15.080;2023-03-03T05:30:44;10.60;74.30
70107;DHT22;57473;37.508;15.080;2023-03-03T05:33:13;10.60;74.60
70107;DHT22;57473;37.508;15.080;2023-03-03T05:35:41;10.60;74.60
70107;DHT22;57473;37.508;15.080;2023-03-03T05:38:09;10.60;74.60
70107;DHT22;57473;37.508;15.080;2023-03-03T05:40:37;10.70;74.70
70107;DHT22;57473;37.508;15.080;2023-03-03T05:43:04;10.70;74.30
70107;DHT22;57473;37.508;15.080;2023-03-03T05:45:33;10.70;74.20
70107;DHT22;57473;37.508;15.080;2023-03-03T05:48:01;10.70;73.70
70107;DHT22;57473;37.508;15.080;2023-03-03T05:50:29;10.70;73.20
70107;DHT22;57473;37.508;15.080;2023-03-03T05:52:57;10.70;73.50
70107;DHT22;57473;37.508;15.080;2023-03-03T05:55:24;10.80;73.40
70107;DHT22;57473;37.508;15.080;2023-03-03T05:57:52;10.80;73.40
70107;DHT22;57473;37.508;15.080;2023-03-03T06:00:19;10.80;72.20
70107;DHT22;57473;37.508;15.080;2023-03-03T06:02:47;10.90;71.60
70107;DHT22;57473;37.508;15.080;2023-03-03T06:05:14;10.90;71.00
70107;DHT22;57473;37.508;15.080;2023-03-03T06:07:42;11.00;70.80
70107;DHT22;57473;37.508;15.080;2023-03-03T06:10:10;11.10;70.40
70107;DHT22;57473;37.508;15.080;2023-03-03T06:12:40;11.10;69.70
70107;DHT22;57473;37.508;15.080;2023-03-03T06:15:08;11.20;69.60
70107;DHT22;57473;37.508;15.080;2023-03-03T06:17:36;11.30;69.70
70107;DHT22;57473;37.508;15.080;2023-03-03T06:20:04;11.40;70.20
70107;DHT22;57473;37.508;15.080;2023-03-03T06:22:32;11.40;70.10
70107;DHT22;57473;37.508;15.080;2023-03-03T06:25:00;11.40;70.20
70107;DHT22;57473;37.508;15.080;2023-03-03T06:27:27;11.50;69.70
70107;DHT22;57473;37.508;15.080;2023-03-03T06:29:54;11.60;68.50
70107;DHT22;57473;37.508;15.080;2023-03-03T06:32:22;11.70;69.30
70107;DHT22;57473;37.508;15.080;2023-03-03T06:34:49;11.80;68.70
70107;DHT22;57473;37.508;15.080;2023-03-03T06:37:17;11.80;68.60
70107;DHT22;57473;37.508;15.080;2023-03-03T06:39:44;11.80;68.00
70107;DHT22;57473;37.508;15.080;2023-03-03T06:42:12;11.90;67.40
70107;DHT22;57473;37.508;15.080;2023-03-03T06:44:39;11.90;64.60
70107;DHT22;57473;37.508;15.080;2023-03-03T06:47:07;11.90;63.70
70107;DHT22;57473;37.508;15.080;2023-03-03T06:49:34;12.00;63.80
70107;DHT22;57473;37.508;15.080;2023-03-03T06:52:12;12.00;62.90
70107;DHT22;57473;37.508;15.080;2023-03-03T06:54:40;12.00;62.40
70107;DHT22;57473;37.508;15.080;2023-03-03T06:57:30;12.00;63.00
70107;DHT22;57473;37.508;15.080;2023-03-03T07:00:18;11.90;63.70
70107;DHT22;57473;37.508;15.080;2023-03-03T07:03:14;11.80;65.90
70107;DHT22;57473;37.508;15.080;2023-03-03T07:05:42;11.50;72.40
70107;DHT22;57473;37.508;15.080;2023-03-03T07:08:17;11.40;72.50
70107;DHT22;57473;37.508;15.080;2023-03-03T07:10:45;11.30;75.40
70107;DHT22;57473;37.508;15.080;2023-03-03T07:13:27;11.10;79.40
70107;DHT22;57473;37.508;15.080;2023-03-03T07:15:56;10.80;81.20
70107;DHT22;57473;37.508;15.080;2023-03-03T07:18:58;10.50;82.00
70107;DHT22;57473;37.508;15.080;2023-03-03T07:21:35;10.30;84.70
70107;DHT22;57473;37.508;15.080;2023-03-03T07:24:28;10.20;86.40
70107;DHT22;57473;37.508;15.080;2023-03-03T07:29:35;9.80;93.10
70107;DHT22;57473;37.508;15.080;2023-03-03T07:32:24;9.70;91.40
70107;DHT22;57473;37.508;15.080;2023-03-03T07:34:55;9.50;92.70
70107;DHT22;57473;37.508;15.080;2023-03-03T07:37:36;9.30;94.90
70107;DHT22;57473;37.508;15.080;2023-03-03T07:43:37;9.00;99.90
70107;DHT22;57473;37.508;15.080;2023-03-03T07:48:39;8.80;99.90
70107;DHT22;57473;37.508;15.080;2023-03-03T07:53:42;8.80;99.90
70107;DHT22;57473;37.508;15.080;2023-03-03T07:56:33;8.80;99.90
70107;DHT22;57473;37.508;15.080;2023-03-03T07:59:27;8.80;99.90
70107;DHT22;57473;37.508;15.080;2023-03-03T08:01:56;8.90;99.90
70107;DHT22;57473;37.508;15.080;2023-03-03T08:04:37;8.90;99.90
70107;DHT22;57473;37.508;15.080;2023-03-03T08:07:11;8.80;99.90
70107;DHT22;57473;37.508;15.080;2023-03-03T08:12:26;8.80;99.90
70107;DHT22;57473;37.508;15.080;2023-03-03T08:14:55;8.80;99.90
70107;DHT22;57473;37.508;15.080;2023-03-03T08:17:30;8.90;99.90
70107;DHT22;57473;37.508;15.080;2023-03-03T08:19:59;8.90;99.90
70107;DHT22;57473;37.508;15.080;2023-03-03T08:22:30;8.80;99.90
70107;DHT22;57473;37.508;15.080;2023-03-03T08:24:59;8.80;99.90
70107;DHT22;57473;37.508;15.080;2023-03-03T08:27:26;8.90;99.90
70107;DHT22;57473;37.508;15.080;2023-03-03T08:29:54;8.90;99.90
70107;DHT22;57473;37.508;15.080;2023-03-03T08:32:21;8.90;99.90
70107;DHT22;57473;37.508;15.080;2023-03-03T08:34:48;8.90;99.90
70107;DHT22;57473;37.508;15.080;2023-03-03T08:37:16;8.90;99.90
70107;DHT22;57473;37.508;15.080;2023-03-03T08:39:43;8.90;99.90
70107;DHT22;57473;37.508;15.080;2023-03-03T08:42:11;8.90;99.90
70107;DHT22;57473;37.508;15.080;2023-03-03T08:44:42;8.90;99.90
70107;DHT22;57473;37.508;15.080;2023-03-03T08:47:09;9.00;99.90
70107;DHT22;57473;37.508;15.080;2023-03-03T08:49:36;9.00;99.90
70107;DHT22;57473;37.508;15.080;2023-03-03T08:52:04;9.00;99.90
70107;DHT22;57473;37.508;15.080;2023-03-03T08:54:31;9.00;99.90
70107;DHT22;57473;37.508;15.080;2023-03-03T08:56:58;9.00;99.90
70107;DHT22;57473;37.508;15.080;2023-03-03T08:59:26;9.10;99.90
70107;DHT22;57473;37.508;15.080;2023-03-03T09:01:53;9.10;99.90
70107;DHT22;57473;37.508;15.080;2023-03-03T09:04:21;9.10;99.90
70107;DHT22;57473;37.508;15.080;2023-03-03T09:06:48;9.00;99.90
70107;DHT22;57473;37.508;15.080;2023-03-03T09:09:15;9.00;99.90
70107;DHT22;57473;37.508;15.080;2023-03-03T09:11:43;9.00;99.90
70107;DHT22;57473;37.508;15.080;2023-03-03T09:14:16;9.10;99.90
70107;DHT22;57473;37.508;15.080;2023-03-03T09:16:50;9.10;99.90
70107;DHT22;57473;37.508;15.080;2023-03-03T09:19:28;9.10;99.90
70107;DHT22;57473;37.508;15.080;2023-03-03T09:22:00;9.20;99.90
70107;DHT22;57473;37.508;15.080;2023-03-03T09:24:30;9.20;99.90
70107;DHT22;57473;37.508;15.080;2023-03-03T09:26:58;9.30;99.90
70107;DHT22;57473;37.508;15.080;2023-03-03T09:29:32;9.40;99.90
70107;DHT22;57473;37.508;15.080;2023-03-03T09:32:44;9.50;99.90
70107;DHT22;57473;37.508;15.080;2023-03-03T09:35:36;9.70;99.90
70107;DHT22;57473;37.508;15.080;2023-03-03T09:38:29;9.80;99.90
70107;DHT22;57473;37.508;15.080;2023-03-03T09:52:05;9.90;99.90
70107;DHT22;57473;37.508;15.080;2023-03-03T09:54:45;10.10;99.90
70107;DHT22;57473;37.508;15.080;2023-03-03T10:06:02;10.50;97.60
70107;DHT22;57473;37.508;15.080;2023-03-03T10:11:30;10.70;95.90
70107;DHT22;57473;37.508;15.080;2023-03-03T10:17:06;10.80;98.00
70107;DHT22;57473;37.508;15.080;2023-03-03T10:31:11;10.90;97.30
70107;DHT22;57473;37.508;15.080;2023-03-03T10:36:10;11.00;97.40
70107;DHT22;57473;37.508;15.080;2023-03-03T10:42:38;11.10;98.80
70107;DHT22;57473;37.508;15.080;2023-03-03T10:55:34;11.30;94.60
70107;DHT22;57473;37.508;15.080;2023-03-03T10:58:39;11.20;93.90
70107;DHT22;57473;37.508;15.080;2023-03-03T11:01:25;11.10;92.20
70107;DHT22;57473;37.508;15.080;2023-03-03T11:07:02;10.80;97.70
70107;DHT22;57473;37.508;15.080;2023-03-03T11:09:43;10.60;99.90
70107;DHT22;57473;37.508;15.080;2023-03-03T11:20:50;9.90;99.90
70107;DHT22;57473;37.508;15.080;2023-03-03T11:26:08;9.60;99.90
70107;DHT22;57473;37.508;15.080;2023-03-03T11:37:03;9.70;99.90
70107;DHT22;57473;37.508;15.080;2023-03-03T11:39:33;9.70;99.90
70107;DHT22;57473;37.508;15.080;2023-03-03T11:44:54;9.90;99.90
70107;DHT22;57473;37.508;15.080;2023-03-03T11:50:35;10.00;99.90
70107;DHT22;57473;37.508;15.080;2023-03-03T11:53:38;9.90;99.90
70107;DHT22;57473;37.508;15.080;2023-03-03T12:01:53;9.70;99.90
70107;DHT22;57473;37.508;15.080;2023-03-03T12:10:10;9.90;99.90
70107;DHT22;57473;37.508;15.080;2023-03-03T12:12:54;10.00;99.90
70107;DHT22;57473;37.508;15.080;2023-03-03T12:21:15;9.90;99.90
70107;DHT22;57473;37.508;15.080;2023-03-03T12:24:25;10.00;99.90
70107;DHT22;57473;37.508;15.080;2023-03-03T12:27:28;10.00;99.90
70107;DHT22;57473;37.508;15.080;2023-03-03T12:38:40;10.50;99.90
70107;DHT22;57473;37.508;15.080;2023-03-03T12:49:40;10.60;99.90
70107;DHT22;57473;37.508;15.080;2023-03-03T12:52:33;10.70;99.90
70107;DHT22;57473;37.508;15.080;2023-03-03T12:55:13;10.90;99.90
70107;DHT22;57473;37.508;15.080;2023-03-03T12:58:04;10.90;99.90
70107;DHT22;57473;37.508;15.080;2023-03-03T13:03:48;10.80;99.90
70107;DHT22;57473;37.508;15.080;2023-03-03T13:09:27;10.60;99.90
70107;DHT22;57473;37.508;15.080;2023-03-03T13:12:21;10.50;99.90
70107;DHT22;57473;37.508;15.080;2023-03-03T13:15:22;10.50;99.90
70107;DHT22;57473;37.508;15.080;2023-03-03T13:23:09;10.20;99.90
70107;DHT22;57473;37.508;15.080;2023-03-03T13:28:20;10.20;99.90
70107;DHT22;57473;37.508;15.080;2023-03-03T13:30:49;10.20;99.90
70107;DHT22;57473;37.508;15.080;2023-03-03T13:33:27;10.20;99.90
70107;DHT22;57473;37.508;15.080;2023-03-03T13:36:00;10.10;99.90
70107;DHT22;57473;37.508;15.080;2023-03-03T13:38:39;10.10;99.90
70107;DHT22;57473;37.508;15.080;2023-03-03T13:41:16;10.20;99.90
70107;DHT22;57473;37.508;15.080;2023-03-03T13:44:00;10.20;99.90
70107;DHT22;57473;37.508;15.080;2023-03-03T13:59:11;10.00;99.90
70107;DHT22;57473;37.508;15.080;2023-03-03T14:05:29;9.90;99.90
70107;DHT22;57473;37.508;15.080;2023-03-03T14:10:35;10.00;99.90
70107;DHT22;57473;37.508;15.080;2023-03-03T14:19:13;9.80;99.90
70107;DHT22;57473;37.508;15.080;2023-03-03T14:24:31;9.80;99.90
70107;DHT22;57473;37.508;15.080;2023-03-03T14:27:32;9.90;99.90
70107;DHT22;57473;37.508;15.080;2023-03-03T14:30:26;10.00;99.90
70107;DHT22;57473;37.508;15.080;2023-03-03T14:40:36;10.00;99.90
70107;DHT22;57473;37.508;15.080;2023-03-03T14:43:25;9.90;99.90
70107;DHT22;57473;37.508;15.080;2023-03-03T14:45:53;9.80;99.90
70107;DHT22;57473;37.508;15.080;2023-03-03T14:48:24;9.70;99.90
70107;DHT22;57473;37.508;15.080;2023-03-03T14:53:44;9.60;99.90
70107;DHT22;57473;37.508;15.080;2023-03-03T14:56:24;9.60;99.90
70107;DHT22;57473;37.508;15.080;2023-03-03T14:58:54;9.60;99.90
70107;DHT22;57473;37.508;15.080;2023-03-03T15:01:36;9.60;99.90
70107;DHT22;57473;37.508;15.080;2023-03-03T15:06:43;9.50;99.90
70107;DHT22;57473;37.508;15.080;2023-03-03T15:09:31;9.50;99.90
70107;DHT22;57473;37.508;15.080;2023-03-03T15:12:16;9.60;99.90
70107;DHT22;57473;37.508;15.080;2023-03-03T15:14:45;9.80;99.90
70107;DHT22;57473;37.508;15.080;2023-03-03T15:26:09;10.30;99.90
70107;DHT22;57473;37.508;15.080;2023-03-03T15:29:07;10.40;99.90
70107;DHT22;57473;37.508;15.080;2023-03-03T15:34:25;10.50;99.90
70107;DHT22;57473;37.508;15.080;2023-03-03T15:45:43;10.40;97.00
70107;DHT22;57473;37.508;15.080;2023-03-03T15:56:58;10.30;92.80
70107;DHT22;57473;37.508;15.080;2023-03-03T16:02:53;10.40;95.90
70107;DHT22;57473;37.508;15.080;2023-03-03T16:08:04;10.30;97.70
70107;DHT22;57473;37.508;15.080;2023-03-03T16:11:07;10.30;98.50
70107;DHT22;57473;37.508;15.080;2023-03-03T16:38:48;9.90;91.50
70107;DHT22;57473;37.508;15.080;2023-03-03T16:46:44;9.70;93.90
70107;DHT22;57473;37.508;15.080;2023-03-03T16:54:46;9.50;99.30
70107;DHT22;57473;37.508;15.080;2023-03-03T17:00:23;9.40;99.90
70107;DHT22;57473;37.508;15.080;2023-03-03T17:03:20;9.30;99.90
70107;DHT22;57473;37.508;15.080;2023-03-03T17:05:59;9.30;99.90
70107;DHT22;57473;37.508;15.080;2023-03-03T17:08:55;9.20;99.90
70107;DHT22;57473;37.508;15.080;2023-03-03T17:12:01;9.20;99.90
70107;DHT22;57473;37.508;15.080;2023-03-03T17:17:33;9.00;99.90
70107;DHT22;57473;37.508;15.080;2023-03-03T17:25:21;8.90;99.90
70107;DHT22;57473;37.508;15.080;2023-03-03T17:31:03;8.80;99.90
70107;DHT22;57473;37.508;15.080;2023-03-03T17:42:15;8.50;99.90
70107;DHT22;57473;37.508;15.080;2023-03-03T17:45:02;8.50;99.90
70107;DHT22;57473;37.508;15.080;2023-03-03T17:48:01;8.40;99.90
70107;DHT22;57473;37.508;15.080;2023-03-03T17:56:22;8.40;99.90
70107;DHT22;57473;37.508;15.080;2023-03-03T17:59:06;8.40;99.90
70107;DHT22;57473;37.508;15.080;2023-03-03T18:08:06;8.40;99.90
70107;DHT22;57473;37.508;15.080;2023-03-03T18:18:56;8.20;99.90
70107;DHT22;57473;37.508;15.080;2023-03-03T18:21:37;8.20;99.90
70107;DHT22;57473;37.508;15.080;2023-03-03T18:24:37;8.20;99.90
70107;DHT22;57473;37.508;15.080;2023-03-03T18:27:30;8.20;99.90
70107;DHT22;57473;37.508;15.080;2023-03-03T18:30:14;8.20;99.90
70107;DHT22;57473;37.508;15.080;2023-03-03T18:33:06;8.20;99.90
70107;DHT22;57473;37.508;15.080;2023-03-03T18:49:02;8.30;99.90
70107;DHT22;57473;37.508;15.080;2023-03-03T18:59:53;8.30;99.90
70107;DHT22;57473;37.508;15.080;2023-03-03T19:02:34;8.30;99.90
70107;DHT22;57473;37.508;15.080;2023-03-03T19:05:16;8.30;99.90
70107;DHT22;57473;37.508;15.080;2023-03-03T19:12:52;8.20;99.90
70107;DHT22;57473;37.508;15.080;2023-03-03T19:18:23;8.10;99.90
70107;DHT22;57473;37.508;15.080;2023-03-03T19:23:58;8.20;99.90
70107;DHT22;57473;37.508;15.080;2023-03-03T19:30:05;8.10;99.90
70107;DHT22;57473;37.508;15.080;2023-03-03T19:36:01;8.00;99.90
70107;DHT22;57473;37.508;15.080;2023-03-03T19:41:47;8.00;99.90
70107;DHT22;57473;37.508;15.080;2023-03-03T19:44:26;7.90;99.90
70107;DHT22;57473;37.508;15.080;2023-03-03T19:47:00;7.90;99.90
70107;DHT22;57473;37.508;15.080;2023-03-03T19:49:52;7.80;99.90
70107;DHT22;57473;37.508;15.080;2023-03-03T20:12:31;7.60;99.90
70107;DHT22;57473;37.508;15.080;2023-03-03T20:15:22;7.70;99.90
70107;DHT22;57473;37.508;15.080;2023-03-03T20:23:46;7.70;99.90
70107;DHT22;57473;37.508;15.080;2023-03-03T20:26:44;7.60;99.90
70107;DHT22;57473;37.508;15.080;2023-03-03T20:56:23;7.90;99.90
70107;DHT22;57473;37.508;15.080;2023-03-03T20:59:17;7.90;99.90
70107;DHT22;57473;37.508;15.080;2023-03-03T21:04:23;7.90;99.90
70107;DHT22;57473;37.508;15.080;2023-03-03T21:06:51;7.90;99.90
70107;DHT22;57473;37.508;15.080;2023-03-03T21:11:52;7.90;99.90
70107;DHT22;57473;37.508;15.080;2023-03-03T21:14:22;8.00;99.90
70107;DHT22;57473;37.508;15.080;2023-03-03T21:16:52;8.00;99.90
70107;DHT22;57473;37.508;15.080;2023-03-03T21:19:28;7.90;99.90
70107;DHT22;57473;37.508;15.080;2023-03-03T21:21:57;7.90;99.90
70107;DHT22;57473;37.508;15.080;2023-03-03T21:27:29;7.90;99.90
70107;DHT22;57473;37.508;15.080;2023-03-03T21:30:28;7.90;99.90
70107;DHT22;57473;37.508;15.080;2023-03-03T21:32:56;7.80;99.90
70107;DHT22;57473;37.508;15.080;2023-03-03T21:35:31;7.80;99.90
70107;DHT22;57473;37.508;15.080;2023-03-03T21:38:35;7.80;99.90
70107;DHT22;57473;37.508;15.080;2023-03-03T21:41:03;7.70;99.90
70107;DHT22;57473;37.508;15.080;2023-03-03T21:43:42;7.70;99.90
70107;DHT22;57473;37.508;15.080;2023-03-03T21:46:20;7.70;99.90
70107;DHT22;57473;37.508;15.080;2023-03-03T21:48:50;7.60;99.90
70107;DHT22;57473;37.508;15.080;2023-03-03T21:51:18;7.60;99.90
70107;DHT22;57473;37.508;15.080;2023-03-03T21:53:47;7.60;99.90
70107;DHT22;57473;37.508;15.080;2023-03-03T21:56:15;7.70;99.90
70107;DHT22;57473;37.508;15.080;2023-03-03T21:58:42;7.60;99.90
70107;DHT22;57473;37.508;15.080;2023-03-03T22:01:10;7.60;99.90
70107;DHT22;57473;37.508;15.080;2023-03-03T22:03:38;7.50;99.90
70107;DHT22;57473;37.508;15.080;2023-03-03T22:06:05;7.50;99.90
70107;DHT22;57473;37.508;15.080;2023-03-03T22:08:32;7.50;99.90
70107;DHT22;57473;37.508;15.080;2023-03-03T22:11:00;7.50;99.90
70107;DHT22;57473;37.508;15.080;2023-03-03T22:13:27;7.50;99.90
70107;DHT22;57473;37.508;15.080;2023-03-03T22:15:55;7.50;99.90
70107;DHT22;57473;37.508;15.080;2023-03-03T22:18:22;7.50;99.90
70107;DHT22;57473;37.508;15.080;2023-03-03T22:20:49;7.50;99.90
70107;DHT22;57473;37.508;15.080;2023-03-03T22:23:17;7.50;99.90
70107;DHT22;57473;37.508;15.080;2023-03-03T22:25:45;7.60;99.90
70107;DHT22;57473;37.508;15.080;2023-03-03T22:28:14;7.50;99.90
70107;DHT22;57473;37.508;15.080;2023-03-03T22:30:41;7.50;99.90
70107;DHT22;57473;37.508;15.080;2023-03-03T22:33:09;7.60;99.90
70107;DHT22;57473;37.508;15.080;2023-03-03T22:35:36;7.50;99.90
70107;DHT22;57473;37.508;15.080;2023-03-03T22:38:03;7.50;99.90
70107;DHT22;57473;37.508;15.080;2023-03-03T22:40:31;7.50;99.90
70107;DHT22;57473;37.508;15.080;2023-03-03T22:42:59;7.50;99.90
70107;DHT22;57473;37.508;15.080;2023-03-03T22:45:26;7.40;99.90
70107;DHT22;57473;37.508;15.080;2023-03-03T22:47:54;7.40;99.90
70107;DHT22;57473;37.508;15.080;2023-03-03T22:50:21;7.40;99.90
70107;DHT22;57473;37.508;15.080;2023-03-03T22:52:49;7.40;99.90
70107;DHT22;57473;37.508;15.080;2023-03-03T22:55:16;7.40;99.90
70107;DHT22;57473;37.508;15.080;2023-03-03T22:57:44;7.50;99.90
70107;DHT22;57473;37.508;15.080;2023-03-03T23:00:12;7.50;99.90